createdAt,value
2023-05-04T00:03:08.806Z,102042.91
2023-05-04T00:07:20.846Z,102038.09
2023-05-04T00:11:32.875Z,102030.22
2023-05-04T00:15:44.487Z,102020.72
2023-05-04T00:19:56.097Z,102020.06
2023-05-04T00:24:07.751Z,102011.00
2023-05-04T00:28:19.421Z,102006.66
2023-05-04T00:32:31.119Z,101998.13
2023-05-04T00:36:42.782Z,102006.19
2023-05-04T00:40:54.353Z,101990.81
2023-05-04T00:45:06.499Z,101984.81
2023-05-04T00:49:18.469Z,101988.13
2023-05-04T00:53:30.673Z,101986.03
2023-05-04T00:57:42.347Z,101974.38
2023-05-04T01:01:53.895Z,101975.03
2023-05-04T01:06:39.577Z,101976.69
2023-05-04T01:11:03.772Z,101958.19
2023-05-04T01:15:16.096Z,101963.94
2023-05-04T01:19:29.166Z,101956.28
2023-05-04T01:23:40.922Z,101947.94
2023-05-04T01:27:59.213Z,101966.91
2023-05-04T01:32:14.872Z,101958.66
2023-05-04T01:36:26.761Z,101955.47
2023-05-04T01:40:38.376Z,101943.78
2023-05-04T01:44:49.978Z,101952.31
2023-05-04T01:49:02.380Z,101967.28
2023-05-04T01:53:13.905Z,101967.09
2023-05-04T01:57:25.531Z,101950.06
2023-05-04T02:01:37.942Z,101956.00
2023-05-04T02:05:49.484Z,101948.53
2023-05-04T02:10:01.112Z,101943.81
2023-05-04T02:14:12.861Z,101940.75
2023-05-04T02:18:24.646Z,101938.44
2023-05-04T02:22:36.312Z,101929.47
2023-05-04T02:26:47.895Z,101934.34
2023-05-04T02:30:59.725Z,101940.47
2023-05-04T02:35:11.363Z,101937.13
2023-05-04T02:39:22.929Z,101933.63
2023-05-04T02:43:34.482Z,101924.63
2023-05-04T02:47:46.114Z,101932.03
2023-05-04T02:51:57.929Z,101924.44
2023-05-04T02:56:09.517Z,101912.00
2023-05-04T03:00:21.589Z,101914.84
2023-05-04T03:04:33.186Z,101910.50
2023-05-04T03:08:44.762Z,101913.72
2023-05-04T03:12:56.385Z,101919.09
2023-05-04T03:17:08.210Z,101924.25
2023-05-04T03:21:21.380Z,101924.63
2023-05-04T03:25:33.371Z,101924.06
2023-05-04T03:29:45.265Z,101906.22
2023-05-04T03:33:57.151Z,101898.38
2023-05-04T03:38:10.439Z,101885.38
2023-05-04T03:42:22.267Z,101891.06
2023-05-04T03:46:33.856Z,101891.06
2023-05-04T03:50:45.834Z,101881.56
2023-05-04T03:54:57.427Z,101884.41
2023-05-04T03:59:09.039Z,101877.75
2023-05-04T04:03:21.918Z,101866.56
2023-05-04T04:07:33.781Z,101879.13
2023-05-04T04:11:45.483Z,101877.47
2023-05-04T04:15:57.341Z,101872.66
2023-05-04T04:20:09.879Z,101874.34
2023-05-04T04:24:21.642Z,101879.41
2023-05-04T04:28:34.088Z,101870.38
2023-05-04T04:32:47.082Z,101866.78
2023-05-04T04:36:58.945Z,101873.06
2023-05-04T04:41:11.009Z,101864.59
2023-05-04T04:45:23.674Z,101878.19
2023-05-04T04:49:35.235Z,101888.91
2023-05-04T04:53:46.912Z,101868.25
2023-05-04T04:57:58.523Z,101869.41
2023-05-04T05:02:10.075Z,101878.50
2023-05-04T05:06:22.207Z,101885.69
2023-05-04T05:10:33.813Z,101878.00
2023-05-04T05:14:47.204Z,101868.69
2023-05-04T05:18:58.754Z,101876.41
2023-05-04T05:23:10.506Z,101867.31
2023-05-04T05:27:22.171Z,101864.72
2023-05-04T05:31:33.801Z,101871.63
2023-05-04T05:35:45.716Z,101882.16
2023-05-04T05:39:57.277Z,101868.88
2023-05-04T05:44:09.706Z,101864.03
2023-05-04T05:48:22.720Z,101867.13
2023-05-04T05:52:34.543Z,101879.22
2023-05-04T05:56:46.160Z,101864.84
2023-05-04T06:00:57.736Z,101869.53
2023-05-04T06:05:10.484Z,101863.66
2023-05-04T06:09:22.195Z,101860.94
2023-05-04T06:13:33.842Z,101869.81
2023-05-04T06:17:45.532Z,101842.97
2023-05-04T06:21:57.258Z,101841.94
2023-05-04T06:26:08.870Z,101832.06
2023-05-04T06:30:24.296Z,101843.69
2023-05-04T06:34:36.005Z,101838.03
2023-05-04T06:38:47.703Z,101837.44
2023-05-04T06:42:59.398Z,101828.22
2023-05-04T06:47:12.336Z,101836.66
2023-05-04T06:51:24.100Z,101831.47
2023-05-04T06:55:37.127Z,101827.84
2023-05-04T06:59:48.758Z,101823.03
2023-05-04T07:04:00.666Z,101815.84
2023-05-04T07:08:12.530Z,101807.00
2023-05-04T07:12:24.217Z,101802.22
2023-05-04T07:16:36.238Z,101801.66
2023-05-04T07:20:48.085Z,101796.56
2023-05-04T07:25:00.891Z,101807.00
2023-05-04T07:29:12.608Z,101813.94
2023-05-04T07:33:24.294Z,101806.34
2023-05-04T07:37:36.307Z,101796.94
2023-05-04T07:41:49.621Z,101789.59
2023-05-04T07:46:01.690Z,101790.06
2023-05-04T07:50:13.697Z,101793.97
2023-05-04T07:54:25.548Z,101775.50
2023-05-04T07:58:37.305Z,101783.19
2023-05-04T08:02:49.722Z,101777.34
2023-05-04T08:07:01.519Z,101787.53
2023-05-04T08:11:20.507Z,101761.56
2023-05-04T08:15:32.947Z,101779.34
2023-05-04T08:19:44.659Z,101762.34
2023-05-04T08:23:56.316Z,101767.22
2023-05-04T08:28:08.033Z,101770.00
2023-05-04T08:32:19.700Z,101749.53
2023-05-04T08:36:32.573Z,101736.94
2023-05-04T08:40:44.280Z,101737.50
2023-05-04T08:44:57.423Z,101743.22
2023-05-04T08:49:10.525Z,101731.13
2023-05-04T08:53:23.349Z,101737.66
2023-05-04T08:57:35.361Z,101739.06
2023-05-04T09:01:55.661Z,101734.09
2023-05-04T09:06:08.605Z,101738.44
2023-05-04T09:10:20.814Z,101731.41
2023-05-04T09:14:34.120Z,101711.69
2023-05-04T09:18:45.962Z,101724.13
2023-05-04T09:23:08.690Z,101719.19
2023-05-04T09:27:20.424Z,101725.50
2023-05-04T09:31:42.738Z,101712.72
2023-05-04T09:35:54.732Z,101693.63
2023-05-04T09:40:06.861Z,101704.63
2023-05-04T09:44:23.238Z,101692.31
2023-05-04T09:48:35.013Z,101687.81
2023-05-04T09:52:47.241Z,101690.97
2023-05-04T09:57:10.699Z,101695.09
2023-05-04T10:01:23.123Z,101681.75
2023-05-04T10:05:35.297Z,101679.03
2023-05-04T10:09:48.723Z,101654.56
2023-05-04T10:14:00.391Z,101661.91
2023-05-04T10:18:25.330Z,101653.72
2023-05-04T10:23:04.316Z,101658.59
2023-05-04T10:27:18.713Z,101672.84
2023-05-04T10:31:56.915Z,101649.78
2023-05-04T10:36:10.394Z,101638.84
2023-05-04T10:40:38.070Z,101634.66
2023-05-04T10:44:54.989Z,101613.94
2023-05-04T10:49:16.243Z,101609.75
2023-05-04T10:53:34.207Z,101610.16
2023-05-04T10:57:56.700Z,101593.38
2023-05-04T11:02:08.657Z,101592.63
2023-05-04T11:06:24.609Z,101586.22
2023-05-04T11:10:36.501Z,101569.97
2023-05-04T11:14:48.195Z,101573.97
2023-05-04T11:19:12.625Z,101564.31
2023-05-04T11:23:24.669Z,101558.75
2023-05-04T11:27:36.349Z,101552.91
2023-05-04T11:31:55.563Z,101529.84
2023-05-04T11:36:07.438Z,101524.16
2023-05-04T11:40:23.778Z,101517.84
2023-05-04T11:44:37.406Z,101521.22
2023-05-04T11:48:49.133Z,101513.75
2023-05-04T11:53:09.134Z,101511.31
2023-05-04T11:57:24.492Z,101495.00
2023-05-04T12:01:36.855Z,101491.22
2023-05-04T12:05:50.884Z,101493.53
2023-05-04T12:10:02.533Z,101491.69
2023-05-04T12:14:14.195Z,101493.13
2023-05-04T12:18:29.782Z,101481.06
2023-05-04T12:22:44.627Z,101461.69
2023-05-04T12:26:56.490Z,101461.72
2023-05-04T12:31:08.787Z,101456.06
2023-05-04T12:35:20.364Z,101448.78
2023-05-04T12:39:32.923Z,101456.91
2023-05-04T12:43:44.566Z,101445.66
2023-05-04T12:47:56.133Z,101451.31
2023-05-04T12:52:08.586Z,101436.94
2023-05-04T12:56:20.241Z,101418.59
2023-05-04T13:00:36.102Z,101426.22
2023-05-04T13:04:47.770Z,101418.03
2023-05-04T13:09:01.702Z,101410.75
2023-05-04T13:13:16.224Z,101401.59
2023-05-04T13:17:29.649Z,101398.84
2023-05-04T13:21:41.311Z,101403.94
2023-05-04T13:25:52.996Z,101399.78
2023-05-04T13:30:04.900Z,101391.72
2023-05-04T13:34:16.642Z,101380.31
2023-05-04T13:38:28.301Z,101382.84
2023-05-04T13:42:40.099Z,101371.66
2023-05-04T13:46:51.790Z,101366.03
2023-05-04T13:51:04.073Z,101361.88
2023-05-04T13:55:16.850Z,101335.66
2023-05-04T13:59:29.037Z,101341.19
2023-05-04T14:03:40.896Z,101302.47
2023-05-04T14:07:52.922Z,101313.03
2023-05-04T14:12:04.833Z,101300.31
2023-05-04T14:16:16.526Z,101302.25
2023-05-04T14:20:28.400Z,101291.91
2023-05-04T14:24:40.213Z,101283.75
2023-05-04T14:28:51.911Z,101276.03
2023-05-04T14:33:03.844Z,101255.53
2023-05-04T14:37:15.780Z,101258.50
2023-05-04T14:41:27.966Z,101243.97
2023-05-04T14:45:39.800Z,101235.81
2023-05-04T14:49:51.692Z,101236.22
2023-05-04T14:54:03.467Z,101235.91
2023-05-04T14:58:15.984Z,101237.81
2023-05-04T15:02:27.771Z,101235.06
2023-05-04T15:06:39.468Z,101232.75
2023-05-04T15:10:51.171Z,101221.94
2023-05-04T15:15:03.265Z,101228.75
2023-05-04T15:19:14.911Z,101225.84
2023-05-04T15:23:26.604Z,101211.34
2023-05-04T15:27:38.290Z,101215.63
2023-05-04T15:31:50.161Z,101209.09
2023-05-04T15:36:06.806Z,101222.50
2023-05-04T15:40:18.481Z,101213.72
2023-05-04T15:44:30.277Z,101205.97
2023-05-04T15:48:42.448Z,101215.53
2023-05-04T15:52:54.144Z,101204.00
2023-05-04T15:57:06.140Z,101213.56
2023-05-04T16:01:17.908Z,101185.06
2023-05-04T16:05:29.677Z,101179.44
2023-05-04T16:09:41.346Z,101181.41
2023-05-04T16:13:53.227Z,101170.81
2023-05-04T16:18:05.070Z,101179.56
2023-05-04T16:22:16.696Z,101183.19
2023-05-04T16:26:28.325Z,101160.31
2023-05-04T16:30:42.574Z,101161.75
2023-05-04T16:34:54.281Z,101139.59
2023-05-04T16:39:07.263Z,101147.31
2023-05-04T16:43:19.626Z,101155.66
2023-05-04T16:47:31.376Z,101159.97
2023-05-04T16:51:43.406Z,101149.00
2023-05-04T16:56:00.322Z,101137.56
2023-05-04T17:00:13.367Z,101150.88
2023-05-04T17:04:27.536Z,101148.53
2023-05-04T17:08:39.178Z,101138.75
2023-05-04T17:12:54.397Z,101142.94
2023-05-04T17:17:06.934Z,101132.50
2023-05-04T17:21:18.625Z,101127.63
2023-05-04T17:25:30.217Z,101129.94
2023-05-04T17:29:41.946Z,101131.22
2023-05-04T17:33:53.599Z,101138.44
2023-05-04T17:38:05.820Z,101140.44
2023-05-04T17:42:17.509Z,101134.50
2023-05-04T17:46:29.372Z,101108.75
2023-05-04T17:50:41.097Z,101144.78
2023-05-04T17:54:53.617Z,101130.97
2023-05-04T17:59:05.480Z,101142.25
2023-05-04T18:03:17.209Z,101153.28
2023-05-04T18:07:28.985Z,101167.84
2023-05-04T18:11:40.762Z,101160.53
2023-05-04T18:15:53.200Z,101145.34
2023-05-04T18:20:07.346Z,101146.56
2023-05-04T18:24:19.425Z,101151.25
2023-05-04T18:28:31.322Z,101150.00
2023-05-04T18:32:43.154Z,101140.56
2023-05-04T18:36:54.855Z,101153.94
2023-05-04T18:41:06.770Z,101158.34
2023-05-04T18:45:18.550Z,101160.25
2023-05-04T18:49:30.332Z,101143.97
2023-05-04T18:53:42.038Z,101170.16
2023-05-04T18:57:53.750Z,101166.44
2023-05-04T19:02:05.450Z,101161.88
2023-05-04T19:06:17.134Z,101176.06
2023-05-04T19:10:29.032Z,101171.78
2023-05-04T19:14:43.027Z,101170.69
2023-05-04T19:18:55.724Z,101158.19
2023-05-04T19:23:07.601Z,101169.13
2023-05-04T19:27:19.288Z,101159.06
2023-05-04T19:31:31.210Z,101160.44
2023-05-04T19:35:42.900Z,101158.56
2023-05-04T19:39:54.791Z,101151.75
2023-05-04T19:44:10.037Z,101170.00
2023-05-04T19:48:21.921Z,101128.56
2023-05-04T19:52:34.939Z,101167.28
2023-05-04T19:56:46.930Z,101165.66
2023-05-04T20:00:58.881Z,101135.66
2023-05-04T20:05:10.759Z,101161.84
2023-05-04T20:09:22.516Z,101134.00
2023-05-04T20:13:34.271Z,101159.88
2023-05-04T20:17:46.027Z,101159.09
2023-05-04T20:21:57.980Z,101149.25
2023-05-04T20:26:09.755Z,101153.91
2023-05-04T20:30:21.684Z,101145.47
2023-05-04T20:34:33.692Z,101130.44
2023-05-04T20:38:45.335Z,101148.16
2023-05-04T20:42:57.064Z,101128.00
2023-05-04T20:47:09.444Z,101131.53
2023-05-04T20:51:21.580Z,101097.47
2023-05-04T20:55:33.432Z,101092.84
2023-05-04T20:59:45.313Z,101085.72
2023-05-04T21:03:57.269Z,101112.97
2023-05-04T21:08:09.021Z,101080.00
2023-05-04T21:12:21.008Z,101094.44
2023-05-04T21:16:32.968Z,101062.50
2023-05-04T21:20:44.891Z,101089.25
2023-05-04T21:24:56.598Z,101068.00
2023-05-04T21:29:15.050Z,101067.47
2023-05-04T21:33:26.923Z,101083.00
2023-05-04T21:37:38.637Z,101070.22
2023-05-04T21:41:50.361Z,101064.22
2023-05-04T21:46:02.136Z,101068.03
2023-05-04T21:50:13.885Z,101047.84
2023-05-04T21:54:25.819Z,101051.09
2023-05-04T21:58:41.070Z,101049.16
2023-05-04T22:02:55.773Z,101042.63
2023-05-04T22:07:07.452Z,101047.78
2023-05-04T22:11:19.192Z,101044.72
2023-05-04T22:15:38.588Z,101044.72
2023-05-04T22:19:58.181Z,101062.44
2023-05-04T22:24:10.012Z,101043.91
2023-05-04T22:28:22.278Z,101049.63
2023-05-04T22:32:33.953Z,101034.63
2023-05-04T22:36:46.545Z,101035.44
2023-05-04T22:40:58.319Z,101068.09
2023-05-04T22:45:11.188Z,101051.19
2023-05-04T22:49:22.946Z,101044.91
2023-05-04T22:53:34.712Z,101046.22
2023-05-04T22:57:48.852Z,101039.13
2023-05-04T23:02:00.671Z,101035.81
2023-05-04T23:06:12.393Z,101045.41
2023-05-04T23:10:24.099Z,101069.84
2023-05-04T23:14:35.848Z,101077.19
2023-05-04T23:18:48.797Z,101059.25
2023-05-04T23:23:00.593Z,101061.59
2023-05-04T23:27:12.530Z,101056.84
2023-05-04T23:31:24.475Z,101066.63
2023-05-04T23:35:36.168Z,101047.72
2023-05-04T23:39:47.791Z,101034.84
2023-05-04T23:43:59.662Z,101059.28
2023-05-04T23:48:11.304Z,101034.28
2023-05-04T23:52:23.270Z,101030.38
2023-05-04T23:56:34.949Z,101052.19
